createdAt,value
2023-02-17T00:00:59.839Z,14.32
2023-02-17T00:03:26.652Z,13.89
2023-02-17T00:05:53.669Z,14.01
2023-02-17T00:08:20.417Z,13.56
2023-02-17T00:10:55.497Z,13.23
2023-02-17T00:13:22.088Z,14.10
2023-02-17T00:15:48.665Z,13.27
2023-02-17T00:18:15.184Z,13.08
2023-02-17T00:20:41.730Z,12.99
2023-02-17T00:23:08.280Z,13.22
2023-02-17T00:25:34.811Z,12.85
2023-02-17T00:28:01.305Z,12.89
2023-02-17T00:30:27.824Z,12.81
2023-02-17T00:32:54.371Z,13.18
2023-02-17T00:35:20.947Z,12.33
2023-02-17T00:37:47.457Z,12.78
2023-02-17T00:40:14.593Z,13.06
2023-02-17T00:42:41.300Z,12.20
2023-02-17T00:45:08.553Z,12.46
2023-02-17T00:47:35.038Z,12.07
2023-02-17T00:50:01.628Z,12.29
2023-02-17T00:52:28.152Z,12.12
2023-02-17T00:54:54.631Z,12.33
2023-02-17T00:57:21.104Z,12.34
2023-02-17T00:59:47.586Z,12.34
2023-02-17T01:02:14.109Z,12.50
2023-02-17T01:04:40.665Z,13.25
2023-02-17T01:07:07.182Z,13.35
2023-02-17T01:09:33.660Z,12.81
2023-02-17T01:12:00.148Z,13.14
2023-02-17T01:14:26.652Z,12.91
2023-02-17T01:16:53.124Z,12.51
2023-02-17T01:19:19.646Z,13.18
2023-02-17T01:21:46.169Z,12.83
2023-02-17T01:24:13.491Z,12.90
2023-02-17T01:26:40.286Z,12.91
2023-02-17T01:29:07.728Z,13.29
2023-02-17T01:31:34.869Z,12.58
2023-02-17T01:34:04.108Z,13.21
2023-02-17T01:36:30.884Z,13.12
2023-02-17T01:38:57.833Z,13.32
2023-02-17T01:41:27.266Z,12.36
2023-02-17T01:44:26.104Z,12.34
2023-02-17T01:46:55.569Z,12.38
2023-02-17T01:49:41.637Z,13.40
2023-02-17T01:52:17.217Z,13.21
2023-02-17T01:54:57.952Z,12.63
2023-02-17T01:57:29.475Z,13.09
2023-02-17T01:59:56.397Z,12.91
2023-02-17T02:02:23.203Z,12.09
2023-02-17T02:04:53.706Z,12.35
2023-02-17T02:07:34.116Z,12.06
2023-02-17T02:10:00.770Z,11.83
2023-02-17T02:12:30.497Z,11.52
2023-02-17T02:15:14.415Z,11.17
2023-02-17T02:18:12.107Z,10.80
2023-02-17T02:21:09.980Z,11.12
2023-02-17T02:23:58.537Z,11.08
2023-02-17T02:26:59.168Z,11.57
2023-02-17T02:30:02.205Z,13.39
2023-02-17T02:32:53.196Z,11.93
2023-02-17T02:35:34.731Z,11.47
2023-02-17T02:38:16.537Z,12.17
2023-02-17T02:40:49.763Z,12.13
2023-02-17T02:43:17.334Z,12.36
2023-02-17T02:45:44.006Z,12.42
2023-02-17T02:48:10.593Z,12.99
2023-02-17T02:51:06.307Z,13.34
2023-02-17T02:54:00.532Z,13.35
2023-02-17T02:57:01.876Z,16.01
2023-02-17T02:59:40.550Z,14.15
2023-02-17T03:02:40.820Z,15.91
2023-02-17T03:05:32.214Z,15.76
2023-02-17T03:08:09.590Z,16.04
2023-02-17T03:10:47.646Z,16.19
2023-02-17T03:13:14.216Z,13.78
2023-02-17T03:15:41.102Z,12.94
2023-02-17T03:18:07.656Z,12.98
2023-02-17T03:20:41.009Z,13.60
2023-02-17T03:23:07.671Z,13.48
2023-02-17T03:25:34.243Z,12.97
2023-02-17T03:28:00.709Z,13.47
2023-02-17T03:30:27.927Z,14.24
2023-02-17T03:32:54.663Z,13.58
2023-02-17T03:35:21.162Z,13.23
2023-02-17T03:37:47.680Z,13.40
2023-02-17T03:40:14.240Z,14.20
2023-02-17T03:42:40.708Z,14.73
2023-02-17T03:45:07.453Z,14.61
2023-02-17T03:47:33.934Z,12.97
2023-02-17T03:50:00.461Z,12.93
2023-02-17T03:52:26.969Z,13.56
2023-02-17T03:54:53.433Z,13.49
2023-02-17T03:57:19.960Z,12.76
2023-02-17T03:59:46.476Z,12.70
2023-02-17T04:02:12.951Z,12.98
2023-02-17T04:04:39.477Z,12.22
2023-02-17T04:07:06.038Z,12.56
2023-02-17T04:09:32.562Z,12.93
2023-02-17T04:11:59.068Z,12.69
2023-02-17T04:14:45.517Z,12.41
2023-02-17T04:17:22.106Z,12.83
2023-02-17T04:19:48.678Z,12.52
2023-02-17T04:22:15.153Z,13.17
2023-02-17T04:24:41.669Z,13.31
2023-02-17T04:27:08.170Z,12.92
2023-02-17T04:29:34.747Z,12.36
2023-02-17T04:32:01.343Z,12.32
2023-02-17T04:34:27.993Z,12.38
2023-02-17T04:36:54.481Z,12.32
2023-02-17T04:39:20.996Z,12.82
2023-02-17T04:41:47.555Z,13.14
2023-02-17T04:44:14.031Z,12.88
2023-02-17T04:46:40.485Z,13.19
2023-02-17T04:49:07.032Z,12.96
2023-02-17T04:51:33.525Z,13.57
2023-02-17T04:54:00.022Z,13.73
2023-02-17T04:56:26.590Z,13.79
2023-02-17T04:58:53.117Z,13.76
2023-02-17T05:01:19.701Z,14.03
2023-02-17T05:03:46.212Z,12.96
2023-02-17T05:06:12.737Z,12.12
2023-02-17T05:08:39.209Z,11.91
2023-02-17T05:11:05.812Z,12.12
2023-02-17T05:13:32.318Z,12.12
2023-02-17T05:15:59.028Z,13.84
2023-02-17T05:18:25.491Z,13.61
2023-02-17T05:20:52.060Z,12.80
2023-02-17T05:23:18.569Z,12.44
2023-02-17T05:25:45.107Z,12.94
2023-02-17T05:28:11.677Z,12.63
2023-02-17T05:30:38.219Z,12.62
2023-02-17T05:33:04.763Z,13.92
2023-02-17T05:35:31.590Z,14.48
2023-02-17T05:37:59.039Z,13.10
2023-02-17T05:40:25.549Z,13.77
2023-02-17T05:42:52.228Z,14.12
2023-02-17T05:45:18.822Z,14.97
2023-02-17T05:47:45.383Z,15.43
2023-02-17T05:50:12.182Z,15.62
2023-02-17T05:52:38.661Z,15.16
2023-02-17T05:55:05.552Z,14.70
2023-02-17T05:57:34.689Z,15.21
2023-02-17T06:00:01.188Z,14.75
2023-02-17T06:02:27.655Z,14.23
2023-02-17T06:04:54.327Z,14.15
2023-02-17T06:07:21.264Z,13.49
2023-02-17T06:09:47.737Z,13.93
2023-02-17T06:12:14.246Z,14.14
2023-02-17T06:14:40.712Z,13.35
2023-02-17T06:17:07.196Z,13.51
2023-02-17T06:19:33.680Z,13.83
2023-02-17T06:22:00.174Z,13.93
2023-02-17T06:24:26.655Z,14.83
2023-02-17T06:26:53.204Z,15.19
2023-02-17T06:29:19.756Z,14.49
2023-02-17T06:31:46.352Z,14.48
2023-02-17T06:34:12.943Z,14.93
2023-02-17T06:36:39.697Z,14.46
2023-02-17T06:39:06.202Z,14.33
2023-02-17T06:41:32.734Z,14.76
2023-02-17T06:43:59.221Z,13.76
2023-02-17T06:46:25.733Z,13.55
2023-02-17T06:48:52.215Z,13.33
2023-02-17T06:51:18.698Z,12.59
2023-02-17T06:53:45.297Z,11.47
2023-02-17T06:56:11.801Z,10.71
2023-02-17T06:58:38.295Z,11.03
2023-02-17T07:01:05.389Z,11.42
2023-02-17T07:03:32.532Z,11.37
2023-02-17T07:05:59.755Z,10.94
2023-02-17T07:08:26.695Z,10.88
2023-02-17T07:10:53.831Z,10.86
2023-02-17T07:13:20.293Z,10.38
2023-02-17T07:15:46.813Z,10.81
2023-02-17T07:18:13.253Z,11.24
2023-02-17T07:20:39.749Z,11.06
2023-02-17T07:23:06.253Z,11.55
2023-02-17T07:25:32.757Z,11.88
2023-02-17T07:27:59.845Z,11.72
2023-02-17T07:30:26.444Z,11.23
2023-02-17T07:32:55.868Z,11.70
2023-02-17T07:35:22.349Z,11.19
2023-02-17T07:37:48.828Z,10.94
2023-02-17T07:40:15.284Z,10.68
2023-02-17T07:42:41.750Z,10.63
2023-02-17T07:45:08.425Z,10.91
2023-02-17T07:47:34.970Z,10.40
2023-02-17T07:50:01.504Z,10.54
2023-02-17T07:52:28.075Z,10.31
2023-02-17T07:54:54.527Z,10.61
2023-02-17T07:57:21.124Z,10.45
2023-02-17T07:59:47.617Z,9.37
2023-02-17T08:02:14.309Z,8.73
2023-02-17T08:04:40.833Z,8.85
2023-02-17T08:07:07.428Z,8.79
2023-02-17T08:09:34.051Z,8.60
2023-02-17T08:12:00.584Z,8.21
2023-02-17T08:14:30.486Z,8.19
2023-02-17T08:16:57.766Z,7.75
2023-02-17T08:19:26.179Z,7.84
2023-02-17T08:21:53.686Z,8.26
2023-02-17T08:24:20.307Z,8.03
2023-02-17T08:26:47.528Z,8.47
2023-02-17T08:29:14.156Z,8.88
2023-02-17T08:31:43.525Z,10.00
2023-02-17T08:34:22.388Z,9.70
2023-02-17T08:36:58.186Z,10.30
2023-02-17T08:39:32.638Z,10.52
2023-02-17T08:41:59.219Z,10.43
2023-02-17T08:44:26.232Z,11.10
2023-02-17T08:46:53.204Z,11.79
2023-02-17T08:49:23.201Z,11.29
2023-02-17T08:51:50.780Z,11.13
2023-02-17T08:54:17.777Z,10.48
2023-02-17T08:56:44.980Z,10.69
2023-02-17T08:59:12.545Z,10.52
2023-02-17T09:01:41.372Z,10.91
2023-02-17T09:04:10.915Z,11.52
2023-02-17T09:06:44.795Z,11.62
2023-02-17T09:09:14.459Z,10.71
2023-02-17T09:11:41.115Z,11.10
2023-02-17T09:14:08.289Z,10.89
2023-02-17T09:16:35.693Z,10.75
2023-02-17T09:19:02.397Z,10.49
2023-02-17T09:21:28.992Z,10.60
2023-02-17T09:23:55.521Z,10.91
2023-02-17T09:26:22.941Z,9.79
2023-02-17T09:28:49.931Z,10.49
2023-02-17T09:31:20.784Z,9.74
2023-02-17T09:33:49.053Z,9.97
2023-02-17T09:36:25.297Z,9.42
2023-02-17T09:38:52.568Z,9.79
2023-02-17T09:41:37.811Z,9.92
2023-02-17T09:44:13.981Z,9.85
2023-02-17T09:47:00.915Z,9.40
2023-02-17T09:49:43.752Z,9.68
2023-02-17T09:52:19.461Z,9.59
2023-02-17T09:55:10.873Z,9.63
2023-02-17T09:57:48.963Z,9.91
2023-02-17T10:00:23.590Z,10.25
2023-02-17T10:03:18.475Z,9.86
2023-02-17T10:06:16.719Z,10.59
2023-02-17T10:08:56.789Z,9.98
2023-02-17T10:11:29.154Z,8.85
2023-02-17T10:14:02.308Z,8.71
2023-02-17T10:16:40.548Z,8.77
2023-02-17T10:19:15.938Z,9.11
2023-02-17T10:21:50.739Z,8.39
2023-02-17T10:24:17.407Z,8.21
2023-02-17T10:26:58.755Z,7.81
2023-02-17T10:29:55.720Z,7.03
2023-02-17T10:32:28.011Z,7.38
2023-02-17T10:35:00.614Z,7.14
2023-02-17T10:37:44.879Z,6.92
2023-02-17T10:40:24.225Z,7.00
2023-02-17T10:42:56.373Z,7.26
2023-02-17T10:45:35.243Z,7.80
2023-02-17T10:48:12.434Z,7.79
2023-02-17T10:50:43.355Z,8.99
2023-02-17T10:53:34.035Z,7.77
2023-02-17T10:56:04.750Z,8.27
2023-02-17T10:58:39.426Z,7.75
2023-02-17T11:01:07.155Z,8.05
2023-02-17T11:03:34.638Z,7.62
2023-02-17T11:06:14.314Z,7.89
2023-02-17T11:08:48.846Z,7.93
2023-02-17T11:11:24.246Z,7.62
2023-02-17T11:14:01.400Z,7.42
2023-02-17T11:16:59.967Z,7.54
2023-02-17T11:19:32.691Z,7.43
2023-02-17T11:22:01.341Z,6.85
2023-02-17T11:24:32.433Z,6.49
2023-02-17T11:27:05.677Z,7.03
2023-02-17T11:29:32.361Z,6.61
2023-02-17T11:32:08.677Z,6.90
2023-02-17T11:34:38.711Z,6.54
2023-02-17T11:37:14.353Z,6.37
2023-02-17T11:39:44.096Z,6.60
2023-02-17T11:42:28.788Z,6.61
2023-02-17T11:45:18.222Z,6.55
2023-02-17T11:48:22.035Z,7.28
2023-02-17T11:51:18.165Z,7.62
2023-02-17T11:54:22.874Z,6.78
2023-02-17T11:57:22.225Z,6.73
2023-02-17T12:00:13.580Z,6.83
2023-02-17T12:02:55.564Z,6.23
2023-02-17T12:05:53.638Z,7.53
2023-02-17T12:08:30.602Z,7.69
2023-02-17T12:11:06.206Z,8.42
2023-02-17T12:14:08.228Z,7.66
2023-02-17T12:17:03.323Z,7.81
2023-02-17T12:19:50.814Z,7.51
2023-02-17T12:22:27.234Z,7.62
2023-02-17T12:25:18.700Z,7.94
2023-02-17T12:28:09.610Z,7.78
2023-02-17T12:30:46.981Z,8.36
2023-02-17T12:33:52.976Z,8.49
2023-02-17T12:36:23.404Z,8.77
2023-02-17T12:39:01.724Z,7.79
2023-02-17T12:41:40.689Z,8.12
2023-02-17T12:44:20.133Z,8.29
2023-02-17T12:46:51.873Z,7.67
2023-02-17T12:49:21.130Z,8.46
2023-02-17T12:51:54.288Z,10.27
2023-02-17T12:54:47.824Z,10.68
2023-02-17T12:57:27.076Z,11.01
2023-02-17T12:59:54.348Z,11.15
2023-02-17T13:02:24.676Z,11.37
2023-02-17T13:04:54.353Z,11.58
2023-02-17T13:07:25.437Z,11.30
2023-02-17T13:09:55.458Z,10.30
2023-02-17T13:12:21.906Z,10.29
2023-02-17T13:14:57.259Z,10.25
2023-02-17T13:17:38.492Z,8.71
2023-02-17T13:20:10.381Z,9.00
2023-02-17T13:22:41.964Z,9.31
2023-02-17T13:25:28.356Z,10.47
2023-02-17T13:27:55.167Z,9.93
2023-02-17T13:30:21.693Z,9.24
2023-02-17T13:33:04.630Z,9.13
2023-02-17T13:35:35.125Z,9.10
2023-02-17T13:38:02.410Z,8.83
2023-02-17T13:40:29.110Z,8.70
2023-02-17T13:43:10.345Z,8.79
2023-02-17T13:45:57.530Z,9.09
2023-02-17T13:48:27.502Z,8.88
2023-02-17T13:51:03.546Z,9.21
2023-02-17T13:53:39.199Z,9.20
2023-02-17T13:56:22.919Z,8.97
2023-02-17T13:58:49.830Z,8.99
2023-02-17T14:01:26.056Z,9.29
2023-02-17T14:03:55.907Z,9.04
2023-02-17T14:06:37.905Z,9.06
2023-02-17T14:09:21.837Z,9.71
2023-02-17T14:11:49.747Z,9.55
2023-02-17T14:14:17.176Z,9.32
2023-02-17T14:16:45.090Z,9.25
2023-02-17T14:19:17.965Z,9.70
2023-02-17T14:22:00.715Z,9.12
2023-02-17T14:24:40.157Z,9.17
2023-02-17T14:27:09.681Z,9.04
2023-02-17T14:29:47.513Z,9.09
2023-02-17T14:32:31.878Z,8.33
2023-02-17T14:35:13.630Z,7.77
2023-02-17T14:37:41.745Z,7.80
2023-02-17T14:40:24.983Z,7.12
2023-02-17T14:42:52.058Z,7.57
2023-02-17T14:45:19.179Z,8.02
2023-02-17T14:47:47.033Z,7.41
2023-02-17T14:50:14.420Z,7.93
2023-02-17T14:52:47.367Z,7.88
2023-02-17T14:55:26.238Z,7.46
2023-02-17T14:57:53.672Z,7.76
2023-02-17T15:00:20.446Z,7.38
2023-02-17T15:02:46.931Z,7.55
2023-02-17T15:05:13.465Z,7.88
2023-02-17T15:07:40.235Z,7.61
2023-02-17T15:10:19.171Z,7.52
2023-02-17T15:12:45.741Z,7.10
2023-02-17T15:15:17.018Z,6.46
2023-02-17T15:17:43.900Z,6.57
2023-02-17T15:20:11.640Z,6.90
2023-02-17T15:22:38.474Z,6.38
2023-02-17T15:25:13.672Z,6.55
2023-02-17T15:27:40.200Z,6.57
2023-02-17T15:30:10.507Z,6.93
2023-02-17T15:32:37.149Z,7.17
2023-02-17T15:35:14.953Z,7.32
2023-02-17T15:37:41.417Z,8.70
2023-02-17T15:40:13.770Z,8.69
2023-02-17T15:42:40.479Z,7.08
2023-02-17T15:45:07.353Z,5.96
2023-02-17T15:47:33.839Z,6.43
2023-02-17T15:50:00.337Z,6.59
2023-02-17T15:52:29.578Z,6.81
2023-02-17T15:54:57.319Z,7.69
2023-02-17T15:57:25.240Z,8.46
2023-02-17T15:59:52.892Z,8.88
2023-02-17T16:02:22.704Z,8.07
2023-02-17T16:04:49.457Z,8.50
2023-02-17T16:07:16.005Z,9.10
2023-02-17T16:09:42.819Z,8.76
2023-02-17T16:12:18.799Z,8.86
2023-02-17T16:14:45.664Z,9.52
2023-02-17T16:17:16.518Z,10.02
2023-02-17T16:19:43.473Z,10.35
2023-02-17T16:22:10.068Z,10.71
2023-02-17T16:24:36.873Z,10.58
2023-02-17T16:27:04.864Z,9.85
2023-02-17T16:29:31.336Z,9.83
2023-02-17T16:31:57.843Z,9.48
2023-02-17T16:34:25.091Z,9.51
2023-02-17T16:36:56.485Z,10.11
2023-02-17T16:39:23.051Z,10.10
2023-02-17T16:41:49.675Z,10.75
2023-02-17T16:44:18.747Z,10.34
2023-02-17T16:46:49.027Z,10.86
2023-02-17T16:49:30.298Z,11.19
2023-02-17T16:51:56.787Z,11.28
2023-02-17T16:54:23.304Z,10.49
2023-02-17T16:56:51.968Z,10.25
2023-02-17T16:59:21.082Z,9.80
2023-02-17T17:01:48.336Z,9.79
2023-02-17T17:04:15.147Z,10.31
2023-02-17T17:06:48.290Z,9.86
2023-02-17T17:09:17.712Z,8.75
2023-02-17T17:11:44.373Z,7.93
2023-02-17T17:14:11.165Z,7.42
2023-02-17T17:16:39.700Z,7.42
2023-02-17T17:19:06.680Z,6.84
2023-02-17T17:21:33.735Z,7.42
2023-02-17T17:24:00.282Z,7.20
2023-02-17T17:26:42.255Z,7.88
2023-02-17T17:29:11.910Z,7.47
2023-02-17T17:31:38.532Z,7.88
2023-02-17T17:34:05.871Z,9.24
2023-02-17T17:36:42.181Z,7.30
2023-02-17T17:39:20.863Z,7.56
2023-02-17T17:41:48.382Z,7.42
2023-02-17T17:44:15.046Z,8.74
2023-02-17T17:46:41.826Z,9.05
2023-02-17T17:49:12.033Z,8.87
2023-02-17T17:51:39.304Z,9.31
2023-02-17T17:54:07.525Z,8.57
2023-02-17T17:56:37.557Z,9.28
2023-02-17T17:59:04.851Z,9.83
2023-02-17T18:01:31.431Z,9.81
2023-02-17T18:03:58.353Z,9.48
2023-02-17T18:06:34.082Z,12.84
2023-02-17T18:09:04.981Z,10.26
2023-02-17T18:11:33.120Z,8.61
2023-02-17T18:14:04.500Z,7.81
2023-02-17T18:16:32.079Z,8.50
2023-02-17T18:19:02.005Z,9.54
2023-02-17T18:21:28.539Z,7.34
2023-02-17T18:23:55.171Z,7.78
2023-02-17T18:26:21.723Z,7.66
2023-02-17T18:28:48.250Z,7.49
2023-02-17T18:31:16.579Z,10.19
2023-02-17T18:33:43.415Z,8.19
2023-02-17T18:36:28.150Z,8.70
2023-02-17T18:38:54.699Z,9.74
2023-02-17T18:41:30.416Z,10.16
2023-02-17T18:43:58.132Z,13.54
2023-02-17T18:46:26.892Z,9.52
2023-02-17T18:48:54.975Z,11.46
2023-02-17T18:51:23.339Z,15.54
2023-02-17T18:53:50.962Z,13.15
2023-02-17T18:56:22.052Z,9.44
2023-02-17T18:58:50.952Z,7.70
2023-02-17T19:01:20.475Z,7.38
2023-02-17T19:03:47.362Z,6.78
2023-02-17T19:06:17.500Z,6.96
2023-02-17T19:08:45.961Z,6.89
2023-02-17T19:11:14.174Z,7.12
2023-02-17T19:13:40.853Z,7.10
2023-02-17T19:16:21.387Z,6.65
2023-02-17T19:18:48.681Z,6.63
2023-02-17T19:21:15.819Z,7.15
2023-02-17T19:23:42.481Z,7.43
2023-02-17T19:26:10.916Z,7.62
2023-02-17T19:28:38.691Z,7.60
2023-02-17T19:31:11.169Z,7.40
2023-02-17T19:33:38.160Z,7.82
2023-02-17T19:36:11.196Z,8.22
2023-02-17T19:38:37.875Z,8.12
2023-02-17T19:41:07.221Z,8.00
2023-02-17T19:43:33.693Z,8.50
2023-02-17T19:46:00.262Z,8.55
2023-02-17T19:48:26.913Z,9.04
2023-02-17T19:51:00.776Z,9.46
2023-02-17T19:53:27.480Z,9.49
2023-02-17T19:55:53.985Z,8.71
2023-02-17T19:58:20.460Z,9.14
2023-02-17T20:00:47.145Z,10.27
2023-02-17T20:03:13.587Z,10.63
2023-02-17T20:05:41.037Z,11.39
2023-02-17T20:08:08.006Z,11.04
2023-02-17T20:10:40.670Z,11.44
2023-02-17T20:13:07.261Z,12.80
2023-02-17T20:15:33.747Z,13.86
2023-02-17T20:18:00.227Z,11.28
2023-02-17T20:20:26.784Z,11.13
2023-02-17T20:22:53.264Z,9.71
2023-02-17T20:25:19.813Z,9.46
2023-02-17T20:27:46.372Z,9.36
2023-02-17T20:30:13.106Z,8.71
2023-02-17T20:32:39.627Z,8.73
2023-02-17T20:35:06.456Z,9.00
2023-02-17T20:37:35.658Z,9.77
2023-02-17T20:40:02.117Z,11.55
2023-02-17T20:42:28.587Z,12.92
2023-02-17T20:44:55.149Z,13.69
2023-02-17T20:47:21.672Z,12.17
2023-02-17T20:49:51.358Z,12.32
2023-02-17T20:52:17.948Z,10.85
2023-02-17T20:54:44.456Z,10.73
2023-02-17T20:57:14.554Z,10.23
2023-02-17T20:59:41.723Z,11.46
2023-02-17T21:02:10.569Z,23.80
2023-02-17T21:04:37.048Z,14.58
2023-02-17T21:07:05.346Z,13.01
2023-02-17T21:09:31.971Z,10.28
2023-02-17T21:11:58.469Z,10.04
2023-02-17T21:14:25.003Z,10.40
2023-02-17T21:16:51.551Z,10.69
2023-02-17T21:19:18.190Z,9.97
2023-02-17T21:21:45.324Z,9.27
2023-02-17T21:24:11.845Z,9.32
2023-02-17T21:26:38.863Z,9.71
2023-02-17T21:29:05.419Z,9.52
2023-02-17T21:31:32.190Z,10.67
2023-02-17T21:34:00.629Z,9.65
2023-02-17T21:36:29.200Z,8.49
2023-02-17T21:38:56.207Z,8.49
2023-02-17T21:41:24.071Z,8.87
2023-02-17T21:43:50.609Z,8.65
2023-02-17T21:46:17.099Z,8.58
2023-02-17T21:48:43.623Z,8.83
2023-02-17T21:51:11.643Z,8.71
2023-02-17T21:53:38.256Z,8.65
2023-02-17T21:56:05.388Z,8.24
2023-02-17T21:58:32.444Z,8.15
2023-02-17T22:00:59.450Z,7.93
2023-02-17T22:03:26.242Z,8.22
2023-02-17T22:05:52.788Z,8.00
2023-02-17T22:08:19.580Z,8.82
2023-02-17T22:10:46.339Z,8.73
2023-02-17T22:13:15.744Z,8.42
2023-02-17T22:15:42.344Z,8.77
2023-02-17T22:18:09.078Z,8.72
2023-02-17T22:20:35.946Z,8.29
2023-02-17T22:23:03.132Z,8.46
2023-02-17T22:25:29.691Z,8.38
2023-02-17T22:27:56.183Z,8.71
2023-02-17T22:30:22.712Z,8.87
2023-02-17T22:32:49.242Z,8.98
2023-02-17T22:35:15.834Z,8.59
2023-02-17T22:37:42.325Z,8.66
2023-02-17T22:40:09.331Z,8.66
2023-02-17T22:42:35.809Z,9.17
2023-02-17T22:45:02.296Z,9.23
2023-02-17T22:47:28.777Z,9.30
2023-02-17T22:49:55.257Z,9.45
2023-02-17T22:52:21.737Z,9.13
2023-02-17T22:54:48.217Z,8.81
2023-02-17T22:57:14.705Z,8.91
2023-02-17T22:59:41.317Z,9.14
2023-02-17T23:02:08.021Z,9.11
2023-02-17T23:04:34.567Z,9.25
2023-02-17T23:07:01.064Z,9.01
2023-02-17T23:09:27.549Z,8.51
2023-02-17T23:11:54.536Z,9.11
2023-02-17T23:14:25.998Z,9.35
2023-02-17T23:16:55.033Z,9.23
2023-02-17T23:19:23.171Z,9.29
2023-02-17T23:21:53.673Z,9.09
2023-02-17T23:24:21.825Z,8.89
2023-02-17T23:26:48.500Z,8.44
2023-02-17T23:29:16.231Z,9.26
2023-02-17T23:31:43.019Z,9.16
2023-02-17T23:34:15.505Z,8.84
2023-02-17T23:37:07.487Z,8.59
2023-02-17T23:39:46.889Z,8.66
2023-02-17T23:42:14.256Z,9.00
2023-02-17T23:44:43.269Z,8.98
2023-02-17T23:47:12.874Z,8.75
2023-02-17T23:49:46.718Z,8.38
2023-02-17T23:52:23.829Z,8.53
2023-02-17T23:55:05.178Z,8.55
2023-02-17T23:57:54.565Z,8.40
